Time;durP1;ratioP1;P1;durP2;ratioP2;P2;SDS_P1;SDS_P2;PMS_P1;PMS_P2;Temp;Humidity;BMP_temperature;BMP_pressure;BME280_temperature;BME280_humidity;BME280_pressure;Samples;Min_cycle;Max_cycle;Signal;HPM_P1;HPM_P2
2022/11/09 00:01:19;;;;;;;16.83;7.05;;;;;;;;;;5042982;28;20029;-78
2022/11/09 00:03:45;;;;;;;21.48;7.50;;;;;;;;;;5042783;28;20040;-79
2022/11/09 00:06:12;;;;;;;20.33;7.40;;;;;;;;;;5042586;28;20329;-80
2022/11/09 00:08:40;;;;;;;17.70;7.88;;;;;;;;;;5042957;28;20089;-80
2022/11/09 00:11:08;;;;;;;20.67;8.50;;;;;;;;;;5043248;28;20022;-81
2022/11/09 00:13:35;;;;;;;21.35;8.40;;;;;;;;;;5042928;28;20032;-80
2022/11/09 00:16:01;;;;;;;21.67;8.80;;;;;;;;;;5043543;28;20321;-80
2022/11/09 00:18:27;;;;;;;19.50;8.18;;;;;;;;;;5025032;28;20644;-80
2022/11/09 00:20:53;;;;;;;17.48;7.75;;;;;;;;;;5042833;28;20029;-81
2022/11/09 00:23:18;;;;;;;20.92;8.40;;;;;;;;;;5024920;28;20036;-80
2022/11/09 00:25:44;;;;;;;19.52;8.13;;;;;;;;;;5042873;28;20024;-81
2022/11/09 00:28:09;;;;;;;22.40;7.97;;;;;;;;;;5042740;28;20024;-81
2022/11/09 00:30:35;;;;;;;20.65;7.65;;;;;;;;;;5025234;28;20053;-81
2022/11/09 00:33:00;;;;;;;18.10;7.75;;;;;;;;;;5042720;28;20092;-81
2022/11/09 00:35:26;;;;;;;19.25;7.43;;;;;;;;;;5042464;28;20036;-81
2022/11/09 00:37:53;;;;;;;22.05;7.10;;;;;;;;;;5041357;28;20022;-81
2022/11/09 00:40:18;;;;;;;16.20;7.03;;;;;;;;;;5041927;28;20025;-81
2022/11/09 00:42:44;;;;;;;16.15;7.35;;;;;;;;;;5041924;28;20101;-81
2022/11/09 00:45:09;;;;;;;15.70;6.95;;;;;;;;;;5042409;28;20109;-81
2022/11/09 00:47:35;;;;;;;22.30;6.97;;;;;;;;;;5024910;28;20221;-81
2022/11/09 00:50:00;;;;;;;16.98;7.03;;;;;;;;;;5041908;28;20025;-81
2022/11/09 00:52:26;;;;;;;17.85;6.97;;;;;;;;;;5042192;28;20025;-81
2022/11/09 00:54:51;;;;;;;19.35;6.90;;;;;;;;;;5041730;28;20030;-80
2022/11/09 00:57:17;;;;;;;19.33;7.57;;;;;;;;;;5042266;28;20317;-81
2022/11/09 00:59:42;;;;;;;13.32;6.32;;;;;;;;;;5041935;28;20085;-80
2022/11/09 01:02:08;;;;;;;14.57;6.43;;;;;;;;;;5042034;28;20213;-80
2022/11/09 01:04:33;;;;;;;19.73;6.72;;;;;;;;;;5041692;28;20046;-80
2022/11/09 01:06:59;;;;;;;22.02;6.95;;;;;;;;;;5042019;28;20206;-80
2022/11/09 01:09:24;;;;;;;16.75;6.57;;;;;;;;;;5041733;28;20022;-80
2022/11/09 01:11:49;;;;;;;16.92;7.78;;;;;;;;;;5042164;28;20102;-82
2022/11/09 01:14:15;;;;;;;18.90;7.35;;;;;;;;;;5042045;28;20026;-81
2022/11/09 01:16:40;;;;;;;14.15;6.43;;;;;;;;;;5041550;28;20017;-81
2022/11/09 01:19:06;;;;;;;16.20;6.72;;;;;;;;;;5041247;28;20029;-81
2022/11/09 01:21:31;;;;;;;21.42;6.65;;;;;;;;;;5041388;28;20037;-80
2022/11/09 01:23:57;;;;;;;17.50;6.90;;;;;;;;;;5041900;28;20343;-81
2022/11/09 01:26:23;;;;;;;14.95;6.03;;;;;;;;;;5041600;28;20026;-82
2022/11/09 01:28:49;;;;;;;17.92;6.07;;;;;;;;;;5041113;28;20072;-81
2022/11/09 01:31:17;;;;;;;17.63;6.32;;;;;;;;;;5023823;28;20033;-82
2022/11/09 01:33:43;;;;;;;13.40;5.63;;;;;;;;;;5041264;28;20068;-82
2022/11/09 01:36:22;;;;;;;13.85;6.05;;;;;;;;;;5041234;28;20037;-80
2022/11/09 01:38:48;;;;;;;19.25;6.00;;;;;;;;;;5041251;28;20071;-82
2022/11/09 01:41:26;;;;;;;14.93;6.10;;;;;;;;;;5023498;28;20025;-81
2022/11/09 01:44:04;;;;;;;15.13;5.90;;;;;;;;;;5023425;28;20025;-81
2022/11/09 01:46:57;;;;;;;14.00;5.93;;;;;;;;;;5023449;28;20032;-81
2022/11/09 01:49:55;;;;;;;15.07;5.68;;;;;;;;;;5031427;28;20114;-80
2022/11/09 01:52:31;;;;;;;14.38;5.57;;;;;;;;;;5023136;28;20108;-80
2022/11/09 01:55:01;;;;;;;13.68;5.95;;;;;;;;;;5041525;28;20489;-79
2022/11/09 01:57:30;;;;;;;;;;;;;;;;;;5041456;28;20091;-80
2022/11/09 02:00:04;;;;;;;15.73;6.20;;;;;;;;;;5039767;28;19909;-82
2022/11/09 02:02:29;;;;;;;13.88;6.35;;;;;;;;;;5041107;28;20313;-81
2022/11/09 02:05:16;;;;;;;15.30;6.22;;;;;;;;;;5040192;28;20164;-80
2022/11/09 02:07:43;;;;;;;17.75;6.25;;;;;;;;;;5022611;28;20321;-82
2022/11/09 02:10:19;;;;;;;11.80;5.63;;;;;;;;;;5039244;28;20071;-81
2022/11/09 02:12:45;;;;;;;15.18;5.80;;;;;;;;;;5040741;28;20116;-81
2022/11/09 02:15:12;;;;;;;13.18;5.18;;;;;;;;;;5034477;28;20029;-82
2022/11/09 02:17:39;;;;;;;10.82;5.25;;;;;;;;;;5019810;28;20034;-81
2022/11/09 02:20:16;;;;;;;14.82;5.93;;;;;;;;;;5021271;28;20321;-80
2022/11/09 02:22:42;;;;;;;15.55;5.53;;;;;;;;;;5019300;28;20321;-81
2022/11/09 02:25:09;;;;;;;16.75;6.53;;;;;;;;;;5019770;28;20030;-80
2022/11/09 02:27:36;;;;;;;11.27;5.75;;;;;;;;;;5021267;28;20048;-82
2022/11/09 02:30:03;;;;;;;18.55;6.05;;;;;;;;;;5020331;28;20049;-81
2022/11/09 02:32:29;;;;;;;16.92;5.50;;;;;;;;;;5020105;28;20030;-82
2022/11/09 02:34:55;;;;;;;16.05;5.78;;;;;;;;;;5020588;28;20018;-81
2022/11/09 02:37:33;;;;;;;14.95;5.95;;;;;;;;;;5020578;28;20030;-81
2022/11/09 02:40:01;;;;;;;14.15;5.30;;;;;;;;;;5018945;28;20025;-82
2022/11/09 02:42:27;;;;;;;12.75;5.57;;;;;;;;;;5020629;28;20030;-80
2022/11/09 02:44:56;;;;;;;12.35;5.45;;;;;;;;;;5020331;28;20025;-82
2022/11/09 02:47:22;;;;;;;13.70;5.18;;;;;;;;;;5020221;28;20025;-82
2022/11/09 02:49:48;;;;;;;13.50;5.80;;;;;;;;;;5020501;28;20025;-82
2022/11/09 02:52:14;;;;;;;14.00;5.60;;;;;;;;;;5020272;28;20087;-82
2022/11/09 02:54:40;;;;;;;12.00;5.20;;;;;;;;;;5020678;28;20191;-81
2022/11/09 02:57:05;;;;;;;16.27;5.75;;;;;;;;;;5020560;28;20034;-81
2022/11/09 02:59:31;;;;;;;12.10;5.47;;;;;;;;;;5020260;28;20032;-80
2022/11/09 03:01:56;;;;;;;16.92;5.53;;;;;;;;;;5019236;28;20105;-83
2022/11/09 03:04:22;;;;;;;15.88;5.30;;;;;;;;;;5018655;28;20371;-81
2022/11/09 03:06:51;;;;;;;13.23;5.30;;;;;;;;;;5020840;28;20034;-83
2022/11/09 03:09:17;;;;;;;13.73;4.97;;;;;;;;;;5020680;28;20249;-80
2022/11/09 03:11:42;;;;;;;11.82;5.07;;;;;;;;;;5018585;28;20314;-80
2022/11/09 03:14:11;;;;;;;11.10;5.45;;;;;;;;;;5020307;28;20409;-81
2022/11/09 03:16:37;;;;;;;12.18;5.30;;;;;;;;;;5019503;28;20083;-80
2022/11/09 03:19:03;;;;;;;16.52;5.20;;;;;;;;;;5019934;28;20030;-80
2022/11/09 03:21:32;;;;;;;9.80;5.40;;;;;;;;;;5019620;28;20045;-82
2022/11/09 03:23:58;;;;;;;10.18;5.15;;;;;;;;;;5020369;28;20022;-82
2022/11/09 03:26:23;;;;;;;12.13;5.40;;;;;;;;;;5018538;28;20029;-82
2022/11/09 03:28:49;;;;;;;12.25;5.20;;;;;;;;;;5020265;28;20222;-81
2022/11/09 03:31:14;;;;;;;14.07;5.18;;;;;;;;;;5018658;28;20052;-82
2022/11/09 03:33:40;;;;;;;12.60;5.75;;;;;;;;;;5019699;28;20037;-82
2022/11/09 03:36:06;;;;;;;11.23;5.32;;;;;;;;;;5019480;28;20061;-83
2022/11/09 03:38:31;;;;;;;15.23;5.80;;;;;;;;;;5019931;28;20318;-83
2022/11/09 03:41:01;;;;;;;13.77;5.60;;;;;;;;;;5019586;28;20025;-82
2022/11/09 03:43:27;;;;;;;13.38;5.65;;;;;;;;;;5020056;28;20072;-82
2022/11/09 03:45:53;;;;;;;11.98;5.35;;;;;;;;;;5019639;28;20014;-82
2022/11/09 03:48:19;;;;;;;13.20;6.32;;;;;;;;;;5019664;28;20041;-82
2022/11/09 03:50:44;;;;;;;15.77;5.68;;;;;;;;;;5019789;28;20018;-81
2022/11/09 03:53:10;;;;;;;11.02;5.95;;;;;;;;;;5020139;28;20033;-82
2022/11/09 03:55:37;;;;;;;13.23;5.32;;;;;;;;;;5018474;28;20450;-82
2022/11/09 03:58:03;;;;;;;14.98;5.38;;;;;;;;;;5019702;28;20022;-81
2022/11/09 04:00:29;;;;;;;13.73;5.60;;;;;;;;;;5019374;28;20038;-82
2022/11/09 04:02:54;;;;;;;10.88;5.28;;;;;;;;;;5018778;28;20095;-83
2022/11/09 04:05:20;;;;;;;11.75;5.13;;;;;;;;;;5019434;28;20056;-83
2022/11/09 04:07:49;;;;;;;15.07;5.43;;;;;;;;;;5019551;28;20038;-82
2022/11/09 04:10:16;;;;;;;11.13;4.82;;;;;;;;;;5019761;28;20261;-81
2022/11/09 04:12:41;;;;;;;9.40;4.90;;;;;;;;;;5018228;28;20041;-81
2022/11/09 04:15:07;;;;;;;9.40;4.82;;;;;;;;;;5022961;28;20041;-81
2022/11/09 04:17:32;;;;;;;10.05;4.85;;;;;;;;;;5023752;28;20028;-81
2022/11/09 04:19:58;;;;;;;11.00;4.97;;;;;;;;;;5023641;28;20072;-81
2022/11/09 04:22:23;;;;;;;12.10;5.10;;;;;;;;;;5021580;28;20029;-81
2022/11/09 04:24:49;;;;;;;10.65;5.25;;;;;;;;;;5023018;28;20310;-82
2022/11/09 04:27:14;;;;;;;16.80;5.55;;;;;;;;;;5022753;28;20077;-82
2022/11/09 04:29:39;;;;;;;11.13;5.30;;;;;;;;;;5022856;28;20025;-82
2022/11/09 04:32:05;;;;;;;13.10;5.50;;;;;;;;;;5022921;28;20073;-82
2022/11/09 04:34:30;;;;;;;13.02;4.93;;;;;;;;;;5022749;28;20317;-83
2022/11/09 04:36:56;;;;;;;12.85;5.18;;;;;;;;;;5021631;28;20034;-81
2022/11/09 04:39:21;;;;;;;12.18;5.10;;;;;;;;;;5022798;28;20385;-81
2022/11/09 04:41:46;;;;;;;14.38;5.40;;;;;;;;;;5022195;28;20072;-82
2022/11/09 04:44:12;;;;;;;10.80;4.88;;;;;;;;;;5021670;28;20018;-81
2022/11/09 04:46:37;;;;;;;12.98;5.15;;;;;;;;;;5022609;28;20347;-82
2022/11/09 04:49:03;;;;;;;9.02;4.93;;;;;;;;;;5022479;28;20028;-82
2022/11/09 04:51:28;;;;;;;11.20;4.78;;;;;;;;;;5021982;28;20393;-83
2022/11/09 04:53:55;;;;;;;11.65;4.78;;;;;;;;;;5022445;28;20246;-81
2022/11/09 04:56:21;;;;;;;9.95;4.65;;;;;;;;;;5020871;28;20040;-82
2022/11/09 04:58:48;;;;;;;8.27;4.47;;;;;;;;;;5022741;28;20026;-82
2022/11/09 05:01:13;;;;;;;9.73;4.60;;;;;;;;;;5021984;28;20037;-83
2022/11/09 05:03:39;;;;;;;12.57;4.95;;;;;;;;;;5021953;28;20213;-83
2022/11/09 05:06:30;;;;;;;10.18;4.30;;;;;;;;;;5022393;28;20049;-82
2022/11/09 05:08:54;;;;;;;11.63;4.88;;;;;;;;;;5021908;28;20055;-82
2022/11/09 05:11:21;;;;;;;7.75;4.43;;;;;;;;;;5022178;28;20344;-81
2022/11/09 05:13:47;;;;;;;7.10;4.10;;;;;;;;;;5021423;28;20031;-80
2022/11/09 05:16:13;;;;;;;8.60;4.07;;;;;;;;;;5020647;28;20026;-82
2022/11/09 05:18:39;;;;;;;7.07;4.18;;;;;;;;;;5020584;28;20265;-82
2022/11/09 05:21:08;;;;;;;11.05;4.38;;;;;;;;;;5020104;28;20287;-83
2022/11/09 05:26:17;;;;;;;7.75;4.07;;;;;;;;;;5021678;28;20040;-82
2022/11/09 05:28:43;;;;;;;12.38;4.15;;;;;;;;;;5020393;28;20336;-82
2022/11/09 05:31:10;;;;;;;10.98;4.28;;;;;;;;;;5021317;28;20080;-82
2022/11/09 05:33:35;;;;;;;8.77;4.05;;;;;;;;;;5020489;28;20033;-83
2022/11/09 05:36:00;;;;;;;12.95;4.35;;;;;;;;;;5019340;28;20021;-81
2022/11/09 05:38:26;;;;;;;9.75;4.18;;;;;;;;;;5019725;28;20061;-82
2022/11/09 05:40:52;;;;;;;9.60;4.32;;;;;;;;;;5021004;28;20045;-82
2022/11/09 05:43:18;;;;;;;9.00;4.40;;;;;;;;;;5021614;28;20041;-82
2022/11/09 05:45:45;;;;;;;8.93;4.10;;;;;;;;;;5021408;28;20032;-83
2022/11/09 05:48:16;;;;;;;9.45;4.40;;;;;;;;;;5020948;28;20030;-83
2022/11/09 05:50:43;;;;;;;6.35;3.83;;;;;;;;;;5021311;28;20052;-83
2022/11/09 05:53:10;;;;;;;7.82;4.13;;;;;;;;;;5021596;28;20077;-84
2022/11/09 05:55:35;;;;;;;8.57;4.00;;;;;;;;;;5020865;28;20051;-83
2022/11/09 05:58:01;;;;;;;6.05;3.75;;;;;;;;;;5021025;28;20030;-81
2022/11/09 06:00:27;;;;;;;8.82;3.95;;;;;;;;;;5021266;28;20500;-82
2022/11/09 06:02:52;;;;;;;7.10;4.15;;;;;;;;;;5020910;28;20409;-82
2022/11/09 06:05:19;;;;;;;10.07;4.15;;;;;;;;;;5021107;28;20054;-82
2022/11/09 06:07:45;;;;;;;8.38;4.13;;;;;;;;;;5021015;28;20080;-82
2022/11/09 06:10:10;;;;;;;12.63;3.80;;;;;;;;;;5020781;28;20021;-81
2022/11/09 06:12:36;;;;;;;7.18;3.58;;;;;;;;;;5020548;28;20325;-82
2022/11/09 06:15:01;;;;;;;8.05;3.80;;;;;;;;;;5021138;28;20302;-82
2022/11/09 06:17:27;;;;;;;8.82;3.80;;;;;;;;;;5020378;28;20191;-83
2022/11/09 06:19:52;;;;;;;9.18;3.85;;;;;;;;;;5021057;28;20022;-82
2022/11/09 06:22:18;;;;;;;11.60;4.13;;;;;;;;;;5020349;28;20038;-81
2022/11/09 06:24:43;;;;;;;7.80;3.67;;;;;;;;;;5020798;28;20022;-83
2022/11/09 06:27:09;;;;;;;9.70;3.78;;;;;;;;;;5021965;28;20022;-83
2022/11/09 06:29:34;;;;;;;5.80;3.30;;;;;;;;;;5021653;28;20033;-79
2022/11/09 06:32:00;;;;;;;6.10;3.75;;;;;;;;;;5021145;28;20021;-77
2022/11/09 06:34:25;;;;;;;6.70;3.40;;;;;;;;;;5020541;28;20080;-77
2022/11/09 06:36:51;;;;;;;6.25;3.47;;;;;;;;;;5019847;28;20029;-77
2022/11/09 06:39:16;;;;;;;10.13;3.97;;;;;;;;;;5018726;28;20026;-77
2022/11/09 06:41:41;;;;;;;8.88;3.80;;;;;;;;;;5019700;28;20032;-82
2022/11/09 06:44:07;;;;;;;9.63;3.70;;;;;;;;;;5020566;28;20025;-75
2022/11/09 06:46:33;;;;;;;9.55;3.80;;;;;;;;;;5020433;28;20029;-78
2022/11/09 06:48:59;;;;;;;7.38;3.90;;;;;;;;;;5018599;28;20046;-77
2022/11/09 06:51:24;;;;;;;7.90;4.00;;;;;;;;;;5018572;28;20092;-75
2022/11/09 06:53:50;;;;;;;9.15;3.70;;;;;;;;;;5019751;28;20030;-81
2022/11/09 06:56:15;;;;;;;6.93;3.63;;;;;;;;;;5019949;28;20056;-86
2022/11/09 06:58:41;;;;;;;8.27;3.50;;;;;;;;;;5008994;28;20030;-79
2022/11/09 07:01:12;;;;;;;8.18;3.60;;;;;;;;;;5020646;28;20034;-76
2022/11/09 07:03:38;;;;;;;7.57;3.72;;;;;;;;;;5020246;28;20032;-77
2022/11/09 07:06:08;;;;;;;8.18;3.60;;;;;;;;;;5019121;28;20092;-78
2022/11/09 07:08:34;;;;;;;11.52;3.80;;;;;;;;;;5019998;28;20073;-77
2022/11/09 07:11:05;;;;;;;7.30;3.88;;;;;;;;;;5020152;28;20096;-78
2022/11/09 07:13:31;;;;;;;10.05;3.85;;;;;;;;;;5020016;28;20025;-79
2022/11/09 07:15:56;;;;;;;7.30;3.65;;;;;;;;;;5019473;28;20036;-77
2022/11/09 07:18:22;;;;;;;6.30;3.40;;;;;;;;;;5016900;28;20029;-77
2022/11/09 07:20:48;;;;;;;8.23;3.95;;;;;;;;;;4985749;28;20034;-77
2022/11/09 07:23:13;;;;;;;10.55;3.78;;;;;;;;;;4992963;28;20066;-77
2022/11/09 07:25:38;;;;;;;7.38;3.92;;;;;;;;;;5014752;28;20025;-81
2022/11/09 07:28:06;;;;;;;11.98;3.88;;;;;;;;;;5021497;28;20464;-82
2022/11/09 07:30:31;;;;;;;7.95;3.78;;;;;;;;;;5019562;28;20033;-84
2022/11/09 07:32:59;;;;;;;9.02;3.78;;;;;;;;;;5019310;28;20026;-84
2022/11/09 07:35:26;;;;;;;11.25;3.90;;;;;;;;;;5019925;28;20021;-84
2022/11/09 07:37:51;;;;;;;11.30;4.65;;;;;;;;;;5019757;28;20195;-82
2022/11/09 07:40:17;;;;;;;8.20;4.40;;;;;;;;;;5019686;28;20029;-86
2022/11/09 07:42:42;;;;;;;9.98;4.22;;;;;;;;;;5018113;28;20294;-76
2022/11/09 07:45:08;;;;;;;8.68;3.97;;;;;;;;;;5018566;28;20041;-82
2022/11/09 07:47:37;;;;;;;10.38;4.07;;;;;;;;;;5020084;28;20136;-83
2022/11/09 07:50:03;;;;;;;8.75;3.97;;;;;;;;;;5005314;28;20041;-81
2022/11/09 07:52:29;;;;;;;11.57;4.20;;;;;;;;;;5023347;28;20033;-82
2022/11/09 07:54:54;;;;;;;14.23;4.70;;;;;;;;;;5023355;28;20102;-82
2022/11/09 07:57:20;;;;;;;11.18;4.70;;;;;;;;;;5022923;28;20229;-80
2022/11/09 07:59:45;;;;;;;8.90;4.03;;;;;;;;;;5010948;28;20062;-82
2022/11/09 08:02:10;;;;;;;9.25;4.72;;;;;;;;;;5022185;28;20061;-85
2022/11/09 08:04:36;;;;;;;8.68;4.28;;;;;;;;;;5015753;28;20105;-82
2022/11/09 08:07:01;;;;;;;9.90;4.30;;;;;;;;;;5003773;28;20022;-87
2022/11/09 08:09:27;;;;;;;7.53;4.07;;;;;;;;;;5003805;28;20395;-83
2022/11/09 08:11:53;;;;;;;10.48;4.15;;;;;;;;;;5003497;28;20097;-75
2022/11/09 08:14:18;;;;;;;12.30;4.30;;;;;;;;;;5003967;28;20022;-77
2022/11/09 08:16:44;;;;;;;11.27;4.60;;;;;;;;;;5003153;28;20337;-75
2022/11/09 08:19:09;;;;;;;13.10;4.65;;;;;;;;;;5003274;28;20039;-75
2022/11/09 08:21:37;;;;;;;12.48;4.50;;;;;;;;;;5002498;28;20030;-77
2022/11/09 08:24:04;;;;;;;12.48;4.70;;;;;;;;;;5002556;28;20026;-77
2022/11/09 08:26:30;;;;;;;13.90;4.60;;;;;;;;;;5009669;28;20025;-75
2022/11/09 08:28:56;;;;;;;18.20;5.50;;;;;;;;;;5002749;28;20041;-74
2022/11/09 08:31:21;;;;;;;15.00;5.03;;;;;;;;;;5003168;28;20038;-77
2022/11/09 08:33:47;;;;;;;17.45;5.10;;;;;;;;;;5002670;28;20028;-80
2022/11/09 08:36:17;;;;;;;13.10;4.85;;;;;;;;;;5002216;28;20386;-75
2022/11/09 08:38:43;;;;;;;10.65;5.10;;;;;;;;;;4991431;28;20022;-75
2022/11/09 08:41:10;;;;;;;11.75;5.00;;;;;;;;;;5002967;28;20057;-78
2022/11/09 08:43:35;;;;;;;14.50;5.28;;;;;;;;;;5003233;28;20026;-80
2022/11/09 08:46:00;;;;;;;14.32;4.93;;;;;;;;;;5002730;28;20082;-78
2022/11/09 08:48:26;;;;;;;16.13;5.15;;;;;;;;;;5002494;28;20026;-78
2022/11/09 08:50:53;;;;;;;15.65;5.45;;;;;;;;;;4988395;28;20030;-76
2022/11/09 08:53:19;;;;;;;12.77;5.10;;;;;;;;;;4999288;28;20022;-79
2022/11/09 08:55:45;;;;;;;15.10;5.20;;;;;;;;;;5002553;28;20218;-78
2022/11/09 08:58:10;;;;;;;11.57;4.97;;;;;;;;;;5002687;28;20030;-78
2022/11/09 09:00:36;;;;;;;11.13;4.97;;;;;;;;;;5001788;28;20030;-78
2022/11/09 09:03:05;;;;;;;15.40;5.25;;;;;;;;;;5002945;28;20026;-75
2022/11/09 09:05:32;;;;;;;11.30;4.72;;;;;;;;;;5009619;28;20065;-76
2022/11/09 09:07:58;;;;;;;12.07;5.00;;;;;;;;;;5022235;28;20413;-78
2022/11/09 09:10:24;;;;;;;12.05;4.70;;;;;;;;;;5022118;28;20032;-80
2022/11/09 09:12:49;;;;;;;15.60;4.60;;;;;;;;;;5021472;28;20030;-77
2022/11/09 09:15:15;;;;;;;12.25;4.30;;;;;;;;;;5021792;28;20026;-77
2022/11/09 09:17:40;;;;;;;12.50;4.30;;;;;;;;;;5020668;28;20025;-76
2022/11/09 09:20:06;;;;;;;14.00;4.18;;;;;;;;;;5021465;28;20017;-77
2022/11/09 09:22:32;;;;;;;11.43;4.00;;;;;;;;;;5021539;28;20022;-78
2022/11/09 09:24:57;;;;;;;15.45;4.25;;;;;;;;;;5021089;28;20037;-78
2022/11/09 09:27:23;;;;;;;15.20;5.13;;;;;;;;;;5003897;28;20080;-77
2022/11/09 09:29:48;;;;;;;11.52;4.82;;;;;;;;;;5021848;28;20088;-76
2022/11/09 09:32:14;;;;;;;12.50;5.00;;;;;;;;;;5002522;28;20386;-77
2022/11/09 09:34:39;;;;;;;16.92;5.10;;;;;;;;;;5021130;28;20075;-77
2022/11/09 09:37:05;;;;;;;13.18;4.90;;;;;;;;;;5021502;28;20017;-78
2022/11/09 09:39:30;;;;;;;13.45;4.72;;;;;;;;;;5003619;28;20089;-76
2022/11/09 09:42:01;;;;;;;12.90;5.13;;;;;;;;;;5003619;28;20061;-79
2022/11/09 09:44:32;;;;;;;;;;;;;;;;;;5000628;28;20022;-76
2022/11/09 09:47:03;;;;;;;13.75;4.22;;;;;;;;;;5016668;28;19988;-76
2022/11/09 09:49:33;;;;;;;10.15;3.90;;;;;;;;;;5021373;28;20022;-78
2022/11/09 09:52:18;;;;;;;12.70;4.00;;;;;;;;;;5020911;28;20101;-78
2022/11/09 09:55:10;;;;;;;12.48;4.07;;;;;;;;;;5018238;28;20036;-80
2022/11/09 09:57:36;;;;;;;9.85;3.88;;;;;;;;;;4995649;28;20072;-74
2022/11/09 10:00:05;;;;;;;9.45;3.80;;;;;;;;;;5019892;28;20437;-74
2022/11/09 10:02:34;;;;;;;9.90;4.00;;;;;;;;;;5017295;28;20042;-77
2022/11/09 10:05:06;;;;;;;8.68;3.80;;;;;;;;;;5019807;28;20050;-78
2022/11/09 10:07:50;;;;;;;12.68;4.07;;;;;;;;;;5002268;28;20113;-78
2022/11/09 10:10:43;;;;;;;9.25;3.50;;;;;;;;;;4999388;28;20048;-77
2022/11/09 10:13:20;;;;;;;8.85;3.72;;;;;;;;;;5010159;28;20060;-79
2022/11/09 10:15:52;;;;;;;9.40;3.78;;;;;;;;;;5015007;28;20029;-75
2022/11/09 10:18:28;;;;;;;9.57;4.15;;;;;;;;;;5015857;28;20477;-71
2022/11/09 10:20:56;;;;;;;10.05;4.18;;;;;;;;;;5009868;28;20593;-74
2022/11/09 10:23:43;;;;;;;9.65;4.00;;;;;;;;;;5009608;28;20625;-76
2022/11/09 10:26:29;;;;;;;14.85;4.50;;;;;;;;;;5010013;28;20029;-72
2022/11/09 10:29:00;;;;;;;9.38;4.53;;;;;;;;;;5007043;28;20101;-72
2022/11/09 10:31:31;;;;;;;10.00;3.97;;;;;;;;;;4991591;28;20500;-67
2022/11/09 10:34:02;;;;;;;13.18;4.15;;;;;;;;;;5009115;28;20044;-72
2022/11/09 10:36:27;;;;;;;13.38;3.70;;;;;;;;;;5009227;28;20600;-70
2022/11/09 10:38:57;;;;;;;10.65;3.97;;;;;;;;;;5009660;28;20037;-69
2022/11/09 10:41:35;;;;;;;10.52;4.00;;;;;;;;;;5009162;28;20080;-73
2022/11/09 10:44:01;;;;;;;11.43;3.97;;;;;;;;;;5008875;28;20030;-73
2022/11/09 10:46:26;;;;;;;12.18;3.47;;;;;;;;;;5009284;28;20072;-71
2022/11/09 10:48:54;;;;;;;11.40;4.07;;;;;;;;;;5009454;28;20026;-70
2022/11/09 10:51:31;;;;;;;9.20;3.75;;;;;;;;;;5009682;28;20482;-71
2022/11/09 10:54:22;;;;;;;8.20;3.30;;;;;;;;;;5008773;28;20413;-72
2022/11/09 10:57:01;;;;;;;9.88;3.25;;;;;;;;;;5009561;28;20026;-71
2022/11/09 10:59:55;;;;;;;8.57;2.85;;;;;;;;;;5009397;28;20026;-71
2022/11/09 11:02:24;;;;;;;11.18;3.53;;;;;;;;;;5009103;28;20026;-72
2022/11/09 11:05:05;;;;;;;9.35;3.00;;;;;;;;;;5009306;28;20046;-73
2022/11/09 11:07:32;;;;;;;11.93;3.38;;;;;;;;;;5009482;28;20026;-72
2022/11/09 11:10:21;;;;;;;8.98;3.40;;;;;;;;;;5009381;28;20021;-72
2022/11/09 11:13:20;;;;;;;13.38;3.05;;;;;;;;;;5008627;28;20037;-76
2022/11/09 11:15:45;;;;;;;17.40;3.47;;;;;;;;;;5008965;28;20033;-76
2022/11/09 11:18:21;;;;;;;9.63;3.13;;;;;;;;;;5008761;28;20440;-77
2022/11/09 11:20:47;;;;;;;7.80;3.05;;;;;;;;;;5009133;28;20092;-75
2022/11/09 11:23:22;;;;;;;8.70;3.08;;;;;;;;;;5011573;28;20120;-71
2022/11/09 11:25:54;;;;;;;11.00;3.40;;;;;;;;;;5013008;28;20034;-70
2022/11/09 11:28:57;;;;;;;8.25;2.85;;;;;;;;;;5014412;28;20089;-70
2022/11/09 11:31:23;;;;;;;9.77;2.65;;;;;;;;;;4994939;28;20036;-71
2022/11/09 11:33:48;;;;;;;7.35;2.50;;;;;;;;;;5012604;28;20022;-70
2022/11/09 11:36:20;;;;;;;6.93;2.70;;;;;;;;;;5012786;28;20119;-70
2022/11/09 11:39:19;;;;;;;11.77;2.50;;;;;;;;;;5012891;28;20091;-71
2022/11/09 11:42:01;;;;;;;5.93;2.10;;;;;;;;;;5012356;28;20056;-69
2022/11/09 11:44:44;;;;;;;4.68;1.80;;;;;;;;;;5012689;28;20025;-70
2022/11/09 11:47:24;;;;;;;3.55;1.30;;;;;;;;;;5012536;28;20030;-69
2022/11/09 11:50:05;;;;;;;3.15;1.25;;;;;;;;;;5012937;28;20494;-70
2022/11/09 11:52:36;;;;;;;3.22;1.30;;;;;;;;;;5012476;28;20034;-70
2022/11/09 11:55:46;;;;;;;4.90;1.50;;;;;;;;;;5012352;28;20018;-70
2022/11/09 11:58:44;;;;;;;4.35;1.15;;;;;;;;;;4981219;28;20115;-71
2022/11/09 12:01:45;;;;;;;3.03;1.02;;;;;;;;;;4981277;28;20030;-69
2022/11/09 12:04:53;;;;;;;6.63;1.58;;;;;;;;;;4935095;29;20047;-69
2022/11/09 12:07:24;;;;;;;4.43;1.45;;;;;;;;;;4979377;28;20037;-72
2022/11/09 12:10:08;;;;;;;3.53;1.33;;;;;;;;;;5012337;28;20101;-70
2022/11/09 12:12:43;;;;;;;3.75;1.17;;;;;;;;;;5011538;28;20392;-69
2022/11/09 12:15:34;;;;;;;4.13;1.25;;;;;;;;;;5011708;28;20034;-69
2022/11/09 12:18:02;;;;;;;5.75;1.50;;;;;;;;;;5012076;28;20029;-70
2022/11/09 12:20:35;;;;;;;3.58;1.33;;;;;;;;;;5011959;28;20078;-70
2022/11/09 12:23:38;;;;;;;3.85;1.45;;;;;;;;;;5011946;28;20030;-69
2022/11/09 12:26:12;;;;;;;5.78;1.70;;;;;;;;;;5012005;28;20064;-69
2022/11/09 12:29:00;;;;;;;6.45;1.70;;;;;;;;;;5011079;28;20486;-68
2022/11/09 12:32:22;;;;;;;4.80;1.92;;;;;;;;;;5011996;28;20080;-70
2022/11/09 12:35:22;;;;;;;5.45;1.70;;;;;;;;;;4949927;28;20491;-69
2022/11/09 12:38:03;;;;;;;5.85;1.50;;;;;;;;;;4937927;29;20058;-69
2022/11/09 12:40:37;;;;;;;;;;;;;;;;;;5007675;28;20509;-69
2022/11/09 12:43:15;;;;;;;4.40;1.80;;;;;;;;;;5011254;28;19952;-69
2022/11/09 12:45:42;;;;;;;4.22;1.25;;;;;;;;;;5011622;28;20029;-70
2022/11/09 12:48:29;;;;;;;7.22;1.58;;;;;;;;;;5011297;28;20026;-69
2022/11/09 12:50:56;;;;;;;4.85;1.80;;;;;;;;;;5011720;28;20486;-70
2022/11/09 12:53:24;;;;;;;7.95;1.73;;;;;;;;;;5011228;28;20037;-70
2022/11/09 12:55:56;;;;;;;4.22;1.52;;;;;;;;;;4993434;28;20647;-69
2022/11/09 12:58:28;;;;;;;4.72;1.70;;;;;;;;;;5011037;28;20030;-70
2022/11/09 13:01:07;;;;;;;3.55;1.67;;;;;;;;;;5011111;28;20551;-70
2022/11/09 13:03:36;;;;;;;7.20;1.95;;;;;;;;;;5010763;28;20065;-70
2022/11/09 13:06:09;;;;;;;4.85;1.50;;;;;;;;;;5010964;28;20042;-70
2022/11/09 13:08:37;;;;;;;4.88;1.85;;;;;;;;;;5011051;28;20022;-70
2022/11/09 13:11:41;;;;;;;5.07;1.60;;;;;;;;;;5011100;28;20030;-71
2022/11/09 13:14:24;;;;;;;2.97;1.55;;;;;;;;;;5007779;28;20378;-71
2022/11/09 13:17:22;;;;;;;5.32;2.00;;;;;;;;;;4993421;28;20064;-71
2022/11/09 13:19:56;;;;;;;5.00;1.83;;;;;;;;;;5010542;28;20026;-70
2022/11/09 13:22:22;;;;;;;4.28;1.70;;;;;;;;;;5010864;28;20108;-71
2022/11/09 13:24:59;;;;;;;4.50;1.90;;;;;;;;;;5010586;28;20097;-69
2022/11/09 13:27:47;;;;;;;6.82;2.75;;;;;;;;;;5010363;28;20116;-69
2022/11/09 13:30:22;;;;;;;5.60;2.03;;;;;;;;;;5010768;28;20091;-69
2022/11/09 13:33:05;;;;;;;5.95;1.90;;;;;;;;;;5010280;28;20034;-70
2022/11/09 13:35:40;;;;;;;5.97;2.20;;;;;;;;;;5010285;28;20057;-71
2022/11/09 13:38:14;;;;;;;6.00;2.42;;;;;;;;;;5010188;28;20037;-70
2022/11/09 13:40:43;;;;;;;7.03;2.55;;;;;;;;;;5010642;28;20116;-73
2022/11/09 13:43:09;;;;;;;4.47;2.40;;;;;;;;;;5009986;28;20022;-73
2022/11/09 13:45:49;;;;;;;7.47;2.67;;;;;;;;;;5010077;28;20071;-72
2022/11/09 13:48:47;;;;;;;5.32;2.38;;;;;;;;;;5010534;28;20021;-71
2022/11/09 13:51:18;;;;;;;6.32;2.60;;;;;;;;;;5010696;28;20405;-71
2022/11/09 13:53:51;;;;;;;9.35;2.88;;;;;;;;;;5009883;28;20030;-71
2022/11/09 13:56:28;;;;;;;6.70;3.05;;;;;;;;;;5010233;28;20026;-71
2022/11/09 13:59:08;;;;;;;8.63;3.00;;;;;;;;;;5011310;28;20490;-86
2022/11/09 14:01:43;;;;;;;10.73;3.35;;;;;;;;;;5011552;28;20489;-74
2022/11/09 14:04:29;;;;;;;11.57;3.00;;;;;;;;;;4992105;28;20038;-77
2022/11/09 14:07:13;;;;;;;7.40;3.58;;;;;;;;;;4999697;28;20041;-75
2022/11/09 14:10:02;;;;;;;10.43;3.22;;;;;;;;;;5010262;28;20029;-72
2022/11/09 14:12:40;;;;;;;8.45;3.15;;;;;;;;;;5013112;28;20034;-74
2022/11/09 14:15:21;;;;;;;7.95;3.13;;;;;;;;;;5009566;28;20472;-75
2022/11/09 14:17:46;;;;;;;11.73;3.00;;;;;;;;;;4992137;28;20037;-74
2022/11/09 14:20:21;;;;;;;8.90;3.17;;;;;;;;;;5009736;28;20029;-76
2022/11/09 14:22:47;;;;;;;6.20;3.03;;;;;;;;;;5009670;28;20461;-74
2022/11/09 14:25:18;;;;;;;7.57;2.80;;;;;;;;;;5009614;28;20065;-73
2022/11/09 14:28:01;;;;;;;9.60;3.58;;;;;;;;;;5009470;28;20544;-76
2022/11/09 14:30:29;;;;;;;9.80;2.88;;;;;;;;;;5009343;28;20076;-77
2022/11/09 14:32:56;;;;;;;8.10;3.47;;;;;;;;;;5009590;28;20057;-75
2022/11/09 14:35:23;;;;;;;7.13;2.90;;;;;;;;;;5009614;28;20029;-76
2022/11/09 14:37:50;;;;;;;10.15;3.05;;;;;;;;;;4991896;28;20029;-76
2022/11/09 14:40:26;;;;;;;7.03;2.67;;;;;;;;;;5009565;28;20061;-76
2022/11/09 14:43:19;;;;;;;7.85;2.55;;;;;;;;;;5009216;28;20021;-75
2022/11/09 14:45:49;;;;;;;4.45;2.20;;;;;;;;;;5016910;28;20120;-75
2022/11/09 14:48:17;;;;;;;11.18;2.70;;;;;;;;;;5005565;28;20049;-76
2022/11/09 14:50:42;;;;;;;8.73;2.25;;;;;;;;;;5009315;28;20502;-75
2022/11/09 14:53:21;;;;;;;5.70;2.13;;;;;;;;;;5019872;28;20116;-75
2022/11/09 14:55:49;;;;;;;7.22;2.22;;;;;;;;;;5028599;28;20033;-74
2022/11/09 14:58:15;;;;;;;5.65;2.13;;;;;;;;;;5027909;28;20032;-74